createdAt,value
2023-05-14T00:04:08.795Z,6.70
2023-05-14T00:09:13.240Z,6.17
2023-05-14T00:14:16.532Z,7.67
2023-05-14T00:19:19.552Z,8.00
2023-05-14T00:24:22.617Z,6.30
2023-05-14T00:29:25.361Z,7.27
2023-05-14T00:34:28.272Z,6.40
2023-05-14T00:39:31.013Z,7.00
2023-05-14T00:44:34.118Z,5.03
2023-05-14T00:49:39.523Z,6.00
2023-05-14T00:54:42.803Z,6.60
2023-05-14T00:59:46.045Z,5.70
2023-05-14T01:04:49.873Z,8.20
2023-05-14T01:10:10.785Z,8.13
2023-05-14T01:15:30.745Z,8.32
2023-05-14T01:20:33.884Z,6.77
2023-05-14T01:25:37.784Z,7.73
2023-05-14T01:30:48.612Z,5.87
2023-05-14T01:35:53.763Z,10.05
2023-05-14T01:40:57.768Z,5.60
2023-05-14T01:46:01.057Z,6.30
2023-05-14T01:51:04.901Z,6.50
2023-05-14T01:56:07.917Z,6.13
2023-05-14T02:01:10.910Z,5.10
2023-05-14T02:06:14.631Z,5.27
2023-05-14T02:11:17.626Z,4.87
2023-05-14T02:16:20.761Z,7.40
2023-05-14T02:21:24.439Z,5.10
2023-05-14T02:26:27.552Z,10.87
2023-05-14T02:31:30.573Z,4.30
2023-05-14T02:36:33.800Z,4.10
2023-05-14T02:41:36.964Z,6.73
2023-05-14T02:46:40.336Z,6.63
2023-05-14T02:51:43.344Z,5.80
2023-05-14T02:56:46.259Z,5.47
2023-05-14T03:01:49.382Z,7.77
2023-05-14T03:06:52.995Z,5.83
2023-05-14T03:11:56.990Z,6.77
2023-05-14T03:17:00.318Z,5.73
2023-05-14T03:22:03.812Z,4.80
2023-05-14T03:27:06.898Z,6.10
2023-05-14T03:32:09.846Z,4.43
2023-05-14T03:37:12.722Z,4.00
2023-05-14T03:42:15.926Z,5.37
2023-05-14T03:47:18.980Z,7.17
2023-05-14T03:52:21.938Z,3.37
2023-05-14T03:57:24.987Z,5.10
2023-05-14T04:02:28.099Z,6.10
2023-05-14T04:07:31.834Z,7.40
2023-05-14T04:12:34.920Z,4.30
2023-05-14T04:17:37.788Z,4.20
2023-05-14T04:22:40.803Z,4.90
2023-05-14T04:27:43.733Z,8.60
2023-05-14T04:32:46.702Z,5.37
2023-05-14T04:37:49.501Z,5.17
2023-05-14T04:42:52.541Z,5.17
2023-05-14T04:47:55.881Z,5.03
2023-05-14T04:52:58.956Z,4.73
2023-05-14T04:58:01.746Z,3.97
2023-05-14T05:03:05.296Z,6.20
2023-05-14T05:08:08.325Z,7.00
2023-05-14T05:13:11.809Z,5.57
2023-05-14T05:18:14.605Z,5.27
2023-05-14T05:23:17.374Z,9.43
2023-05-14T05:28:20.453Z,4.10
2023-05-14T05:33:23.666Z,4.63
2023-05-14T05:38:26.829Z,7.30
2023-05-14T05:43:29.667Z,4.60
2023-05-14T05:48:32.721Z,3.90
2023-05-14T05:53:35.859Z,9.33
2023-05-14T05:58:39.483Z,10.60
2023-05-14T06:03:42.438Z,5.30
2023-05-14T06:08:45.896Z,4.70
2023-05-14T06:13:49.029Z,5.40
2023-05-14T06:18:52.969Z,4.57
2023-05-14T06:23:55.853Z,5.77
2023-05-14T06:28:59.221Z,5.03
2023-05-14T06:34:02.001Z,3.93
2023-05-14T06:39:05.207Z,6.03
2023-05-14T06:44:08.280Z,4.70
2023-05-14T06:49:11.251Z,7.47
2023-05-14T06:54:14.367Z,5.47
2023-05-14T06:59:17.365Z,4.23
2023-05-14T07:04:20.467Z,5.57
2023-05-14T07:09:23.384Z,5.03
2023-05-14T07:14:26.366Z,5.20
2023-05-14T07:19:30.294Z,6.03
2023-05-14T07:24:33.071Z,6.50
2023-05-14T07:29:36.102Z,4.03
2023-05-14T07:34:39.460Z,5.60
2023-05-14T07:39:42.313Z,6.07
2023-05-14T07:44:45.075Z,5.73
2023-05-14T07:49:47.886Z,5.50
2023-05-14T07:54:52.579Z,8.30
2023-05-14T07:59:56.779Z,6.32
2023-05-14T08:04:59.609Z,9.53
2023-05-14T08:10:03.806Z,8.63
2023-05-14T08:15:08.180Z,4.97
2023-05-14T08:20:12.073Z,6.13
2023-05-14T08:25:15.109Z,5.47
2023-05-14T08:30:18.217Z,8.00
2023-05-14T08:35:21.914Z,6.93
2023-05-14T08:40:25.337Z,5.10
2023-05-14T08:45:34.190Z,5.60
2023-05-14T08:50:37.452Z,9.32
2023-05-14T08:55:40.292Z,6.97
2023-05-14T09:00:43.318Z,5.37
2023-05-14T09:05:46.317Z,4.55
2023-05-14T09:10:49.317Z,8.93
2023-05-14T09:15:53.069Z,4.50
2023-05-14T09:20:56.494Z,6.57
2023-05-14T09:26:03.862Z,12.73
2023-05-14T09:31:07.249Z,7.93
2023-05-14T09:36:10.255Z,5.83
2023-05-14T09:41:13.568Z,6.97
2023-05-14T09:46:17.137Z,9.40
2023-05-14T09:51:21.316Z,9.17
2023-05-14T09:56:24.369Z,7.93
2023-05-14T10:01:30.204Z,8.83
2023-05-14T10:06:38.948Z,8.20
2023-05-14T10:11:47.205Z,10.35
2023-05-14T10:16:56.359Z,10.40
2023-05-14T10:22:07.111Z,11.60
2023-05-14T10:32:16.536Z,9.00
2023-05-14T10:37:27.562Z,6.35
2023-05-14T10:42:43.489Z,6.63
2023-05-14T10:47:47.578Z,7.45
2023-05-14T10:52:52.115Z,8.37
2023-05-14T10:57:58.907Z,8.83
2023-05-14T11:03:07.887Z,12.63
2023-05-14T11:08:11.964Z,14.87
2023-05-14T11:13:16.845Z,10.13
2023-05-14T11:18:31.340Z,9.95
2023-05-14T11:23:34.479Z,12.10
2023-05-14T11:28:38.735Z,8.33
2023-05-14T11:33:42.114Z,11.10
2023-05-14T11:38:49.217Z,11.87
2023-05-14T11:43:52.194Z,10.73
2023-05-14T11:48:55.171Z,10.90
2023-05-14T11:53:59.256Z,22.77
2023-05-14T11:59:02.371Z,15.57
2023-05-14T12:04:05.901Z,17.53
2023-05-14T12:09:12.407Z,14.33
2023-05-14T12:14:20.985Z,9.33
2023-05-14T12:19:25.896Z,16.53
2023-05-14T12:24:29.830Z,13.97
2023-05-14T12:29:39.160Z,10.20
2023-05-14T12:34:42.143Z,17.27
2023-05-14T12:39:45.138Z,11.30
2023-05-14T12:44:48.412Z,13.50
2023-05-14T12:49:51.330Z,13.70
2023-05-14T12:54:54.407Z,12.83
2023-05-14T12:59:58.025Z,17.63
2023-05-14T13:05:02.890Z,11.77
2023-05-14T13:10:06.819Z,10.80
2023-05-14T13:15:10.787Z,10.63
2023-05-14T13:20:13.801Z,11.17
2023-05-14T13:25:16.687Z,10.53
2023-05-14T13:30:20.699Z,10.57
2023-05-14T13:35:23.915Z,9.97
2023-05-14T13:40:26.989Z,7.73
2023-05-14T13:45:29.909Z,12.70
2023-05-14T13:50:32.869Z,24.53
2023-05-14T13:55:35.633Z,17.90
2023-05-14T14:00:38.505Z,15.67
2023-05-14T14:05:42.068Z,10.77
2023-05-14T14:10:45.132Z,13.50
2023-05-14T14:15:49.268Z,13.13
2023-05-14T14:20:52.693Z,16.00
2023-05-14T14:25:55.701Z,12.90
2023-05-14T14:31:00.083Z,14.87
2023-05-14T14:36:02.915Z,14.60
2023-05-14T14:41:10.143Z,19.90
2023-05-14T14:46:13.862Z,15.50
2023-05-14T14:51:16.734Z,16.70
2023-05-14T14:56:19.542Z,14.13
2023-05-14T15:01:22.988Z,14.13
2023-05-14T15:06:27.968Z,12.47
2023-05-14T15:11:31.011Z,13.73
2023-05-14T15:16:33.953Z,13.27
2023-05-14T15:21:37.038Z,12.30
2023-05-14T15:26:41.061Z,18.67
2023-05-14T15:31:45.599Z,8.80
2023-05-14T15:36:50.734Z,27.90
2023-05-14T15:41:53.969Z,16.43
2023-05-14T15:46:56.824Z,10.27
2023-05-14T15:52:00.780Z,7.07
2023-05-14T15:57:03.880Z,7.07
2023-05-14T16:02:09.320Z,9.20
2023-05-14T16:07:13.162Z,10.40
2023-05-14T16:12:16.165Z,8.60
2023-05-14T16:17:19.669Z,10.20
2023-05-14T16:22:22.450Z,14.87
2023-05-14T16:27:26.148Z,13.57
2023-05-14T16:32:29.155Z,7.87
2023-05-14T16:37:32.093Z,16.03
2023-05-14T16:42:35.194Z,9.07
2023-05-14T16:47:38.279Z,9.67
2023-05-14T16:52:41.467Z,14.00
2023-05-14T16:57:44.539Z,8.43
2023-05-14T17:02:49.763Z,7.40
2023-05-14T17:07:52.756Z,9.13
2023-05-14T17:12:55.591Z,16.70
2023-05-14T17:17:58.587Z,10.43
2023-05-14T17:23:01.693Z,10.63
2023-05-14T17:28:04.818Z,6.97
2023-05-14T17:33:08.120Z,8.43
2023-05-14T17:38:11.579Z,11.73
2023-05-14T17:43:14.647Z,37.70
2023-05-14T17:48:17.670Z,35.70
2023-05-14T17:53:20.802Z,17.83
2023-05-14T17:58:24.335Z,10.33
2023-05-14T18:03:27.616Z,10.33
2023-05-14T18:08:30.616Z,10.87
2023-05-14T18:13:33.601Z,19.77
2023-05-14T18:18:37.091Z,23.17
2023-05-14T18:23:40.027Z,34.53
2023-05-14T18:28:43.117Z,30.80
2023-05-14T18:33:46.271Z,19.13
2023-05-14T18:38:49.263Z,13.87
2023-05-14T18:43:52.249Z,14.67
2023-05-14T18:48:56.797Z,23.27
2023-05-14T18:53:59.813Z,19.73
2023-05-14T18:59:02.663Z,23.70
2023-05-14T19:04:06.428Z,14.90
2023-05-14T19:09:10.957Z,27.17
2023-05-14T19:14:13.978Z,12.13
2023-05-14T19:19:17.117Z,14.67
2023-05-14T19:24:20.498Z,11.27
2023-05-14T19:29:23.677Z,15.87
2023-05-14T19:34:27.172Z,14.73
2023-05-14T19:39:30.222Z,12.90
2023-05-14T19:44:33.531Z,23.63
2023-05-14T19:49:36.444Z,19.50
2023-05-14T19:54:39.445Z,24.77
2023-05-14T19:59:42.483Z,17.23
2023-05-14T20:04:46.291Z,13.83
2023-05-14T20:09:49.522Z,17.27
2023-05-14T20:14:52.359Z,14.03
2023-05-14T20:19:56.727Z,17.57
2023-05-14T20:24:59.764Z,19.17
2023-05-14T20:30:03.044Z,16.67
2023-05-14T20:35:06.861Z,12.67
2023-05-14T20:40:14.239Z,16.80
2023-05-14T20:45:17.490Z,37.80
2023-05-14T20:50:22.786Z,40.87
2023-05-14T20:55:26.432Z,17.07
2023-05-14T21:00:29.606Z,16.53
2023-05-14T21:05:33.051Z,21.17
2023-05-14T21:10:36.166Z,19.67
2023-05-14T21:15:39.413Z,11.77
2023-05-14T21:20:42.309Z,12.23
2023-05-14T21:25:45.615Z,8.53
2023-05-14T21:30:50.316Z,15.20
2023-05-14T21:35:53.335Z,11.33
2023-05-14T21:40:56.269Z,9.53
2023-05-14T21:45:59.290Z,13.30
2023-05-14T21:51:02.203Z,9.93
2023-05-14T21:56:06.210Z,15.03
2023-05-14T22:01:11.495Z,13.93
2023-05-14T22:06:14.731Z,16.80
2023-05-14T22:11:17.730Z,10.33
2023-05-14T22:16:22.369Z,8.90
2023-05-14T22:21:26.032Z,12.47
2023-05-14T22:26:29.210Z,11.17
2023-05-14T22:31:32.234Z,7.40
2023-05-14T22:36:35.310Z,17.57
2023-05-14T22:41:38.303Z,13.30
2023-05-14T22:46:41.295Z,9.03
2023-05-14T22:51:44.270Z,10.63
2023-05-14T22:56:47.614Z,9.83
2023-05-14T23:01:50.939Z,10.20
2023-05-14T23:06:53.938Z,9.63
2023-05-14T23:11:56.937Z,10.73
2023-05-14T23:17:00.656Z,14.10
2023-05-14T23:22:03.733Z,10.83
2023-05-14T23:27:06.877Z,14.60
2023-05-14T23:32:09.970Z,16.33
2023-05-14T23:37:13.712Z,17.63
2023-05-14T23:42:16.776Z,16.77
2023-05-14T23:47:19.862Z,18.37
2023-05-14T23:52:22.864Z,15.47
2023-05-14T23:57:27.335Z,16.47
